Time;durP1;ratioP1;P1;durP2;ratioP2;P2;SDS_P1;SDS_P2;PMS_P1;PMS_P2;Temp;Humidity;BMP_temperature;BMP_pressure;BME280_temperature;BME280_humidity;BME280_pressure;Samples;Min_cycle;Max_cycle;Signal;HPM_P1;HPM_P2
2021/03/18 00:02:02;;;;;;;21.43;8.73;;;;;;;4.43;100.00;98808.04;1821676;78;20981;-75
2021/03/18 00:04:31;;;;;;;24.60;8.63;;;;;;;4.42;100.00;98806.35;1821736;78;20976;-74
2021/03/18 00:06:58;;;;;;;16.53;7.20;;;;;;;4.40;100.00;98803.00;1821638;78;20993;-75
2021/03/18 00:09:26;;;;;;;19.13;8.23;;;;;;;4.41;100.00;98804.66;1821713;78;20992;-75
2021/03/18 00:11:54;;;;;;;18.80;8.20;;;;;;;4.40;100.00;98805.68;1821800;78;21810;-76
2021/03/18 00:14:24;;;;;;;26.07;10.17;;;;;;;4.38;100.00;98804.50;1821638;78;21057;-74
2021/03/18 00:16:52;;;;;;;24.50;9.23;;;;;;;4.36;100.00;98803.83;1821698;78;21118;-75
2021/03/18 00:19:20;;;;;;;23.73;10.10;;;;;;;4.34;100.00;98807.17;1821749;78;20996;-75
2021/03/18 00:21:50;;;;;;;25.60;10.40;;;;;;;4.31;100.00;98810.98;1837158;77;21561;-75
2021/03/18 00:24:18;;;;;;;25.43;10.67;;;;;;;4.26;100.00;98807.95;1775341;80;21135;-75
2021/03/18 00:26:46;;;;;;;23.07;11.20;;;;;;;4.24;100.00;98804.61;1849841;77;21302;-75
2021/03/18 00:29:14;;;;;;;29.80;10.93;;;;;;;4.21;100.00;98804.09;1756855;80;20984;-75
2021/03/18 00:31:44;;;;;;;29.70;10.43;;;;;;;4.17;100.00;98808.41;1729208;82;21031;-76
2021/03/18 00:34:13;;;;;;;27.07;10.43;;;;;;;4.15;100.00;98805.06;1731712;82;20904;-76
2021/03/18 00:36:42;;;;;;;29.63;12.73;;;;;;;4.14;100.00;98803.88;1731726;82;22088;-74
2021/03/18 00:39:11;;;;;;;37.53;13.67;;;;;;;4.11;100.00;98803.72;1731394;82;21050;-76
2021/03/18 00:41:38;;;;;;;37.17;14.80;;;;;;;4.10;100.00;98806.55;1731286;83;21441;-75
2021/03/18 00:44:07;;;;;;;29.37;11.53;;;;;;;4.08;100.00;98805.88;1745641;82;21033;-75
2021/03/18 00:46:37;;;;;;;31.80;12.53;;;;;;;4.06;100.00;98803.86;1764700;81;21474;-75
2021/03/18 00:49:07;;;;;;;34.00;12.87;;;;;;;4.04;100.00;98809.84;1753456;81;21388;-76
2021/03/18 00:51:36;;;;;;;27.30;9.80;;;;;;;4.04;100.00;98811.19;1748340;82;20945;-76
2021/03/18 00:54:04;;;;;;;24.47;9.10;;;;;;;4.06;100.00;98805.20;1748549;82;21721;-75
2021/03/18 00:56:32;;;;;;;27.63;8.53;;;;;;;4.08;100.00;98801.36;1756917;81;20982;-76
2021/03/18 00:59:03;;;;;;;27.97;9.27;;;;;;;4.10;100.00;98799.86;1740356;82;20977;-76
2021/03/18 01:01:30;;;;;;;24.27;11.03;;;;;;;4.09;100.00;98796.83;1774787;78;21355;-76
2021/03/18 01:04:00;;;;;;;25.93;10.17;;;;;;;4.07;100.00;98794.34;1783483;80;20985;-75
2021/03/18 01:06:29;;;;;;;14.00;5.83;;;;;;;4.07;100.00;98790.33;1788747;80;21004;-76
2021/03/18 01:08:59;;;;;;;18.03;8.23;;;;;;;4.08;100.00;98798.68;1817219;79;21155;-75
2021/03/18 01:11:34;;;;;;;16.10;6.87;;;;;;;4.10;100.00;98797.19;1817212;79;20985;-76
2021/03/18 01:14:12;;;;;;;17.97;6.73;;;;;;;4.12;100.00;98798.69;1890132;76;26537;-76
2021/03/18 01:16:51;;;;;;;20.47;6.87;;;;;;;4.10;100.00;98803.87;1860921;77;20962;-75
2021/03/18 01:19:21;;;;;;;19.20;6.87;;;;;;;4.11;100.00;98802.38;1860933;77;21332;-75
2021/03/18 01:21:52;;;;;;;20.70;7.60;;;;;;;4.09;100.00;98794.16;1860910;77;20942;-76
2021/03/18 01:24:20;;;;;;;16.67;6.50;;;;;;;4.04;100.00;98796.47;1861026;77;21516;-76
2021/03/18 01:26:48;;;;;;;23.87;9.27;;;;;;;3.98;100.00;98804.16;1860858;77;20998;-75
2021/03/18 01:29:16;;;;;;;19.47;8.53;;;;;;;3.96;100.00;98805.30;1860784;77;20903;-75
2021/03/18 01:31:44;;;;;;;21.57;8.87;;;;;;;3.94;100.00;98803.30;1861093;77;21535;-75
2021/03/18 01:34:13;;;;;;;23.63;9.60;;;;;;;3.92;100.00;98796.77;1860829;77;20966;-76
2021/03/18 01:36:41;;;;;;;18.97;7.73;;;;;;;3.96;100.00;98799.95;1838858;76;21597;-74
2021/03/18 01:39:09;;;;;;;16.77;6.97;;;;;;;3.96;100.00;98806.13;1825518;78;20990;-74
2021/03/18 01:41:38;;;;;;;17.13;7.50;;;;;;;3.98;100.00;98794.80;1825581;78;21488;-76
2021/03/18 01:44:06;;;;;;;22.07;7.53;;;;;;;3.99;100.00;98796.46;1829693;78;21667;-76
2021/03/18 01:46:34;;;;;;;21.53;7.33;;;;;;;4.03;100.00;98802.33;1830687;78;21008;-75
2021/03/18 01:49:03;;;;;;;26.63;8.70;;;;;;;4.06;100.00;98801.19;1850851;77;20998;-75
2021/03/18 01:51:31;;;;;;;16.23;7.67;;;;;;;4.07;100.00;98794.83;1861060;77;20967;-76
2021/03/18 01:53:59;;;;;;;21.50;9.00;;;;;;;4.06;100.00;98799.85;1860952;77;21006;-76
2021/03/18 01:56:27;;;;;;;15.00;7.37;;;;;;;4.04;100.00;98799.15;1860740;77;22662;-75
2021/03/18 01:58:55;;;;;;;16.03;6.83;;;;;;;4.03;100.00;98799.66;1860833;77;21002;-76
2021/03/18 02:01:23;;;;;;;19.33;8.17;;;;;;;4.04;100.00;98796.00;1801994;77;20979;-76
2021/03/18 02:03:51;;;;;;;19.87;8.50;;;;;;;4.05;100.00;98803.52;1861050;77;21597;-75
2021/03/18 02:06:20;;;;;;;19.77;7.57;;;;;;;4.05;100.00;98803.00;1861672;77;20974;-76
2021/03/18 02:08:48;;;;;;;25.77;9.23;;;;;;;4.06;100.00;98799.85;1861918;77;21631;-76
2021/03/18 02:11:16;;;;;;;25.70;10.70;;;;;;;4.08;100.00;98803.20;1862370;77;20958;-76
2021/03/18 02:13:45;;;;;;;25.60;9.17;;;;;;;4.05;100.00;98807.52;1864589;76;21389;-76
2021/03/18 02:16:13;;;;;;;19.80;7.73;;;;;;;4.03;100.00;98808.19;1865776;77;20974;-74
2021/03/18 02:19:27;;;;;;;29.53;11.13;;;;;;;4.02;100.00;98813.19;1865812;76;20970;-76
2021/03/18 02:22:23;;;;;;;34.77;11.00;;;;;;;4.01;100.00;98809.68;1864921;77;21245;-76
2021/03/18 02:25:05;;;;;;;44.90;15.10;;;;;;;3.99;100.00;98813.02;1864375;77;21468;-74
2021/03/18 02:28:13;;;;;;;35.83;13.30;;;;;;;3.94;100.00;98808.64;1864008;77;20994;-75
2021/03/18 02:31:01;;;;;;;44.73;16.80;;;;;;;3.93;100.00;98814.97;1864049;77;21002;-75
2021/03/18 02:34:24;;;;;;;36.03;11.37;;;;;;;3.91;100.00;98815.64;1864013;77;20927;-76
2021/03/18 02:37:06;;;;;;;25.77;8.73;;;;;;;3.90;100.00;98820.66;1859887;77;21644;-76
2021/03/18 02:39:49;;;;;;;17.10;7.70;;;;;;;3.86;100.00;98825.97;1864089;77;20938;-75
2021/03/18 02:42:19;;;;;;;38.40;19.10;;;;;;;3.82;100.00;98828.11;1861247;76;21019;-76
2021/03/18 02:44:51;;;;;;;89.63;35.93;;;;;;;3.77;100.00;98833.09;1866564;76;20917;-75
2021/03/18 02:47:17;;;;;;;76.00;35.27;;;;;;;3.72;100.00;98836.73;1866817;76;20969;-75
2021/03/18 02:49:46;;;;;;;61.20;24.53;;;;;;;3.70;100.00;98836.91;1864419;76;21186;-74
2021/03/18 02:52:18;;;;;;;29.60;13.20;;;;;;;3.68;100.00;98838.05;1867048;77;21001;-74
2021/03/18 02:54:46;;;;;;;31.83;13.03;;;;;;;3.64;100.00;98831.34;1866078;77;21026;-74
2021/03/18 02:57:15;;;;;;;22.17;8.83;;;;;;;3.60;100.00;98826.30;1863773;77;20986;-75
2021/03/18 02:59:43;;;;;;;22.27;8.30;;;;;;;3.56;100.00;98831.63;1863829;77;20966;-75
2021/03/18 03:02:16;;;;;;;25.93;11.30;;;;;;;3.53;100.00;98827.92;1864084;77;22629;-75
2021/03/18 03:04:44;;;;;;;;;;;;;;;3.52;100.00;98829.41;1862065;77;21600;-75
2021/03/18 03:07:12;;;;;;;30.17;16.10;;;;;;;3.49;100.00;98829.24;1827956;77;20173;-75
2021/03/18 03:09:43;;;;;;;26.50;11.90;;;;;;;3.49;100.00;98828.38;1864011;77;21002;-74
2021/03/18 03:12:14;;;;;;;23.93;11.07;;;;;;;3.47;100.00;98829.04;1863902;77;20978;-75
2021/03/18 03:14:43;;;;;;;16.53;7.93;;;;;;;3.44;100.00;98824.86;1860428;76;22266;-75
2021/03/18 03:17:14;;;;;;;50.03;19.80;;;;;;;3.41;100.00;98825.16;1860166;77;21594;-75
2021/03/18 03:19:42;;;;;;;89.40;44.80;;;;;;;3.38;100.00;98826.32;1860081;77;21022;-75
2021/03/18 03:22:10;;;;;;;67.17;35.40;;;;;;;3.36;100.00;98830.13;1860198;77;21002;-76
2021/03/18 03:24:38;;;;;;;62.13;36.30;;;;;;;3.32;100.00;98829.59;1860290;77;20983;-74
2021/03/18 03:27:07;;;;;;;84.73;44.90;;;;;;;3.31;100.00;98823.92;1860161;77;21401;-75
2021/03/18 03:29:35;;;;;;;105.70;55.83;;;;;;;3.30;100.00;98826.24;1860121;77;21532;-75
2021/03/18 03:32:04;;;;;;;80.43;38.77;;;;;;;3.31;100.00;98827.08;1860165;77;21006;-76
2021/03/18 03:34:32;;;;;;;79.00;49.20;;;;;;;3.29;100.00;98827.22;1860065;77;21006;-76
2021/03/18 03:37:02;;;;;;;70.80;45.77;;;;;;;3.29;100.00;98826.39;1860294;77;21556;-76
2021/03/18 03:39:30;;;;;;;43.57;26.40;;;;;;;3.29;100.00;98820.55;1860240;77;21540;-76
2021/03/18 03:41:58;;;;;;;36.87;21.43;;;;;;;3.29;100.00;98826.39;1860110;77;21044;-76
2021/03/18 03:44:26;;;;;;;30.90;16.17;;;;;;;3.27;100.00;98823.88;1860217;77;20966;-76
2021/03/18 03:46:55;;;;;;;27.00;15.40;;;;;;;3.26;100.00;98822.21;1860197;76;21065;-75
2021/03/18 03:49:24;;;;;;;27.47;13.73;;;;;;;3.23;100.00;98816.66;1872165;76;20974;-76
2021/03/18 03:52:31;;;;;;;39.80;14.13;;;;;;;3.23;100.00;98827.85;1874977;76;22274;-77
2021/03/18 03:55:49;;;;;;;27.07;12.83;;;;;;;3.23;100.00;98829.19;1739879;82;21063;-77
2021/03/18 03:58:57;;;;;;;22.20;10.30;;;;;;;3.21;100.00;98827.17;1740070;82;20983;-76
2021/03/18 04:01:43;;;;;;;19.17;8.10;;;;;;;3.29;100.00;98826.39;1810659;77;26589;-75
2021/03/18 04:04:37;;;;;;;26.30;11.00;;;;;;;3.32;100.00;98827.43;1889964;76;26778;-76
2021/03/18 04:07:09;;;;;;;20.27;8.97;;;;;;;3.30;100.00;98830.25;1803901;79;21027;-75
2021/03/18 04:09:39;;;;;;;35.47;13.27;;;;;;;3.31;100.00;98825.73;1777574;80;22606;-75
2021/03/18 04:12:07;;;;;;;36.10;17.20;;;;;;;3.32;100.00;98826.92;1777750;80;21011;-74
2021/03/18 04:14:36;;;;;;;28.17;11.23;;;;;;;3.34;100.00;98820.09;1803841;79;21034;-77
2021/03/18 04:17:08;;;;;;;30.90;9.83;;;;;;;3.36;100.00;98816.77;1777718;80;21548;-75
2021/03/18 04:19:50;;;;;;;23.47;9.33;;;;;;;3.46;100.00;98819.36;1845394;76;26363;-77
2021/03/18 04:22:20;;;;;;;22.30;8.30;;;;;;;3.44;100.00;98821.35;1815397;78;21135;-75
2021/03/18 04:24:49;;;;;;;19.90;7.73;;;;;;;3.44;100.00;98820.84;1815217;79;21196;-76
2021/03/18 04:27:18;;;;;;;22.37;7.90;;;;;;;3.44;100.00;98822.19;1784761;79;20928;-75
2021/03/18 04:29:47;;;;;;;21.17;8.90;;;;;;;3.45;100.00;98826.52;1815534;79;21024;-76
2021/03/18 04:32:15;;;;;;;30.30;11.63;;;;;;;3.46;100.00;98832.72;1815255;79;20905;-77
2021/03/18 04:34:45;;;;;;;26.30;10.37;;;;;;;3.47;100.00;98831.23;1810735;79;21608;-75
2021/03/18 04:37:12;;;;;;;32.73;13.53;;;;;;;3.49;100.00;98835.92;1815321;79;21652;-76
2021/03/18 04:39:43;;;;;;;31.80;14.10;;;;;;;3.49;100.00;98837.73;1815363;79;20984;-77
2021/03/18 04:42:11;;;;;;;30.07;13.20;;;;;;;3.50;100.00;98842.93;1815358;77;20988;-75
2021/03/18 04:44:40;;;;;;;34.80;19.03;;;;;;;3.48;100.00;98838.75;1783231;80;20996;-77
2021/03/18 04:47:08;;;;;;;60.70;33.33;;;;;;;3.46;100.00;98836.23;1729057;80;20992;-75
2021/03/18 04:49:36;;;;;;;35.93;18.87;;;;;;;3.46;100.00;98843.41;1782614;79;21366;-76
2021/03/18 04:52:04;;;;;;;29.53;16.13;;;;;;;3.45;100.00;98843.89;1818484;79;20979;-76
2021/03/18 04:54:31;;;;;;;27.23;12.37;;;;;;;3.41;100.00;98845.20;1818535;79;21545;-75
2021/03/18 04:57:01;;;;;;;28.93;12.57;;;;;;;3.39;100.00;98847.19;1818470;79;21608;-75
2021/03/18 04:59:29;;;;;;;24.10;9.20;;;;;;;3.36;100.00;98851.50;1818381;79;20991;-75
2021/03/18 05:01:57;;;;;;;21.43;8.93;;;;;;;3.34;100.00;98849.48;1817248;78;21128;-75
2021/03/18 05:04:25;;;;;;;20.67;8.90;;;;;;;3.32;100.00;98854.98;1815492;79;21515;-76
2021/03/18 05:06:54;;;;;;;20.83;9.30;;;;;;;3.31;100.00;98860.00;1815306;79;21007;-75
2021/03/18 05:09:23;;;;;;;31.30;12.50;;;;;;;3.28;100.00;98854.95;1815388;79;21024;-75
2021/03/18 05:11:53;;;;;;;24.20;10.73;;;;;;;3.28;100.00;98862.14;1815514;79;21545;-75
2021/03/18 05:14:23;;;;;;;30.37;13.07;;;;;;;3.27;100.00;98869.29;1815275;79;21800;-76
2021/03/18 05:16:51;;;;;;;39.10;15.73;;;;;;;3.28;100.00;98871.48;1815307;79;21040;-76
2021/03/18 05:19:19;;;;;;;20.97;9.53;;;;;;;3.26;100.00;98874.31;1829854;78;20983;-76
2021/03/18 05:21:48;;;;;;;22.37;9.80;;;;;;;3.25;100.00;98875.80;1836141;78;21571;-75
2021/03/18 05:24:16;;;;;;;17.30;8.07;;;;;;;3.23;100.00;98877.27;1835954;78;21537;-75
2021/03/18 05:26:44;;;;;;;17.43;8.20;;;;;;;3.20;100.00;98890.42;1835802;78;21537;-75
2021/03/18 05:29:13;;;;;;;23.70;9.50;;;;;;;3.18;100.00;98887.07;1835574;78;20991;-76
2021/03/18 05:31:44;;;;;;;22.23;8.20;;;;;;;3.20;100.00;98884.25;1835297;78;20964;-76
2021/03/18 05:34:12;;;;;;;22.90;9.33;;;;;;;3.21;100.00;98890.78;1835265;78;20984;-75
2021/03/18 05:36:40;;;;;;;21.33;9.57;;;;;;;3.22;100.00;98892.95;1835322;78;21587;-75
2021/03/18 05:39:08;;;;;;;24.47;10.23;;;;;;;3.25;100.00;98895.33;1834997;78;21527;-76
2021/03/18 05:41:36;;;;;;;26.60;10.20;;;;;;;3.22;100.00;98896.48;1835059;78;21703;-75
2021/03/18 05:44:07;;;;;;;15.20;7.77;;;;;;;3.19;100.00;98902.13;1822574;78;21172;-76
2021/03/18 05:46:35;;;;;;;29.03;11.07;;;;;;;3.14;100.00;98897.73;1819242;78;21597;-76
2021/03/18 05:49:04;;;;;;;24.23;11.10;;;;;;;3.11;100.00;98905.20;1782023;78;20972;-75
2021/03/18 05:51:35;;;;;;;22.20;8.17;;;;;;;3.09;100.00;98908.52;1802598;79;22543;-76
2021/03/18 05:54:03;;;;;;;20.13;8.70;;;;;;;3.11;100.00;98907.37;1802593;79;21558;-75
2021/03/18 05:56:32;;;;;;;17.47;8.13;;;;;;;3.13;100.00;98907.22;1802441;79;20976;-76
2021/03/18 05:59:00;;;;;;;18.13;8.13;;;;;;;3.12;100.00;98910.40;1802524;79;20941;-76
2021/03/18 06:01:28;;;;;;;21.17;8.17;;;;;;;3.10;100.00;98912.39;1802603;79;21529;-76
2021/03/18 06:03:57;;;;;;;33.23;11.77;;;;;;;3.11;100.00;98910.55;1786982;79;21183;-75
2021/03/18 06:06:25;;;;;;;21.40;9.40;;;;;;;3.13;100.00;98914.73;1802591;79;21050;-77
2021/03/18 06:08:53;;;;;;;24.07;10.50;;;;;;;3.15;100.00;98912.77;1767748;81;21003;-76
2021/03/18 06:11:21;;;;;;;23.53;9.93;;;;;;;3.16;100.00;98914.44;1767800;81;20976;-76
2021/03/18 06:13:50;;;;;;;22.30;8.97;;;;;;;3.21;100.00;98911.33;1758063;81;20981;-75
2021/03/18 06:16:18;;;;;;;22.83;9.33;;;;;;;3.25;100.00;98920.70;1762001;81;21805;-74
2021/03/18 06:18:47;;;;;;;19.57;8.27;;;;;;;3.29;100.00;98928.75;1758582;81;21025;-73
2021/03/18 06:21:15;;;;;;;34.27;12.73;;;;;;;3.33;100.00;98927.48;1724235;81;21487;-75
2021/03/18 06:24:00;;;;;;;29.83;11.53;;;;;;;3.36;100.00;98926.32;1748376;82;20937;-78
2021/03/18 06:26:35;;;;;;;51.73;17.63;;;;;;;3.37;100.00;98932.02;1761993;81;21569;-74
2021/03/18 06:29:05;;;;;;;35.57;14.07;;;;;;;3.36;100.00;98930.33;1788282;80;21483;-73
2021/03/18 06:31:34;;;;;;;34.50;12.73;;;;;;;3.36;100.00;98933.00;1736587;81;21028;-76
2021/03/18 06:34:02;;;;;;;28.50;10.47;;;;;;;3.36;100.00;98935.67;1789357;80;20922;-76
2021/03/18 06:36:33;;;;;;;26.23;10.27;;;;;;;3.38;100.00;98926.53;1768392;80;21015;-76
2021/03/18 06:39:06;;;;;;;34.97;12.47;;;;;;;3.43;100.00;98931.39;1743277;82;20997;-81
2021/03/18 06:41:44;;;;;;;32.70;12.17;;;;;;;3.47;100.00;98935.94;1723422;82;21644;-79
2021/03/18 06:44:25;;;;;;;22.83;8.53;;;;;;;3.50;100.00;98934.30;1721944;83;20985;-82
2021/03/18 06:46:55;;;;;;;15.97;7.50;;;;;;;3.57;100.00;98934.03;1748026;82;21012;-81
2021/03/18 06:49:25;;;;;;;17.30;7.80;;;;;;;3.70;100.00;98933.64;1697027;83;21067;-80
2021/03/18 06:52:07;;;;;;;17.57;6.60;;;;;;;3.80;100.00;98937.91;1690821;85;20965;-77
2021/03/18 06:54:42;;;;;;;37.53;14.83;;;;;;;3.90;100.00;98937.83;1690224;85;21198;-82
2021/03/18 06:57:11;;;;;;;32.67;12.07;;;;;;;3.97;100.00;98943.41;1690404;85;21809;-84
2021/03/18 06:59:42;;;;;;;27.33;12.77;;;;;;;4.02;100.00;98938.43;1690326;85;21024;-77
2021/03/18 07:02:19;;;;;;;23.60;10.80;;;;;;;4.08;100.00;98939.63;1690629;85;20973;-79
2021/03/18 07:04:51;;;;;;;31.00;10.67;;;;;;;4.10;100.00;98938.47;1690532;85;20953;-79
2021/03/18 07:07:29;;;;;;;44.33;15.00;;;;;;;4.16;100.00;98943.69;1812549;79;27217;-78
2021/03/18 07:09:58;;;;;;;44.10;14.63;;;;;;;4.12;100.00;98939.14;1752408;80;21017;-76
2021/03/18 07:12:29;;;;;;;34.27;11.87;;;;;;;4.13;100.00;98938.16;1715353;83;21798;-78
2021/03/18 07:15:00;;;;;;;23.90;9.03;;;;;;;4.18;100.00;98943.89;1684509;84;20991;-75
2021/03/18 07:17:33;;;;;;;27.17;10.53;;;;;;;4.22;100.00;98944.92;1714393;83;21021;-79
2021/03/18 07:20:16;;;;;;;21.80;7.07;;;;;;;4.23;100.00;98947.92;1715302;83;21049;-79
2021/03/18 07:22:49;;;;;;;36.80;16.63;;;;;;;4.28;100.00;98946.95;1715809;83;21238;-78
2021/03/18 07:25:19;;;;;;;32.13;15.15;;;;;;;4.34;100.00;98944.48;1714757;83;21652;-75
2021/03/18 07:27:52;;;;;;;36.90;18.27;;;;;;;4.40;100.00;98947.53;1713493;83;21339;-74
2021/03/18 07:30:34;;;;;;;31.67;15.80;;;;;;;4.48;100.00;98942.20;1852138;76;26753;-75
2021/03/18 07:33:04;;;;;;;30.37;12.57;;;;;;;4.49;100.00;98937.20;1782385;80;20977;-73
2021/03/18 07:35:34;;;;;;;36.37;16.30;;;;;;;4.53;100.00;98944.77;1854929;77;21362;-74
2021/03/18 07:38:03;;;;;;;25.27;9.83;;;;;;;4.54;100.00;98938.41;1814751;79;21009;-71
2021/03/18 07:40:32;;;;;;;33.83;15.00;;;;;;;4.58;100.00;98946.12;1782843;80;20991;-72
2021/03/18 07:43:02;;;;;;;62.13;23.73;;;;;;;4.64;100.00;98943.66;1843758;77;21357;-72
2021/03/18 07:45:30;;;;;;;39.23;18.47;;;;;;;4.72;100.00;98941.50;1821680;78;21108;-71
2021/03/18 07:47:59;;;;;;;36.63;14.87;;;;;;;4.77;100.00;98947.73;1821533;78;21439;-73
2021/03/18 07:50:33;;;;;;;83.17;30.90;;;;;;;4.82;100.00;98954.78;1821361;78;20967;-72
2021/03/18 07:53:02;;;;;;;126.13;43.00;;;;;;;4.83;100.00;98955.94;1821081;78;21004;-70
2021/03/18 07:55:32;;;;;;;117.57;37.17;;;;;;;4.83;100.00;98961.80;1821531;78;21592;-71
2021/03/18 07:58:00;;;;;;;67.30;23.70;;;;;;;4.80;100.00;98952.27;1821514;78;21003;-71
2021/03/18 08:00:31;;;;;;;159.53;48.23;;;;;;;4.82;100.00;98957.47;1821425;78;21648;-72
2021/03/18 08:03:41;;;;;;;184.27;58.47;;;;;;;4.83;100.00;98961.30;1790706;78;21043;-71
2021/03/18 08:06:10;;;;;;;59.60;25.33;;;;;;;4.79;100.00;98967.16;1652487;86;21224;-76
2021/03/18 08:08:40;;;;;;;40.53;17.17;;;;;;;4.71;100.00;98965.25;1663425;86;21145;-72
2021/03/18 08:11:15;;;;;;;31.50;14.30;;;;;;;4.64;100.00;98955.70;1663588;86;21658;-75
2021/03/18 08:13:44;;;;;;;36.00;15.83;;;;;;;4.65;100.00;98962.72;1663377;86;22329;-71
2021/03/18 08:16:30;;;;;;;30.17;12.00;;;;;;;4.65;100.00;98952.52;1663271;86;21044;-72
2021/03/18 08:18:58;;;;;;;25.80;11.63;;;;;;;4.66;100.00;98959.56;1663340;86;21690;-72
2021/03/18 08:21:45;;;;;;;49.77;22.83;;;;;;;4.59;100.00;98956.67;1663060;86;21084;-73
2021/03/18 08:24:16;;;;;;;54.93;21.33;;;;;;;4.58;100.00;98954.16;1636353;87;21223;-73
2021/03/18 08:26:57;;;;;;;40.20;15.90;;;;;;;4.54;100.00;98957.14;1845396;76;26521;-72
2021/03/18 08:29:46;;;;;;;31.10;14.20;;;;;;;4.44;100.00;98952.91;1815182;79;21010;-71
2021/03/18 08:32:32;;;;;;;19.70;8.90;;;;;;;4.38;100.00;98955.72;1815242;79;22098;-72
2021/03/18 08:35:06;;;;;;;28.67;10.70;;;;;;;4.35;100.00;98962.72;1810513;79;20937;-75
2021/03/18 08:37:40;;;;;;;29.80;14.80;;;;;;;4.36;100.00;98969.77;1764721;81;21117;-72
2021/03/18 08:40:24;;;;;;;28.90;14.03;;;;;;;4.32;100.00;98970.58;1748791;82;20946;-71
2021/03/18 08:43:06;;;;;;;24.90;10.63;;;;;;;4.29;100.00;98970.05;1845199;76;26302;-70
2021/03/18 08:45:38;;;;;;;32.03;14.50;;;;;;;4.27;100.00;98964.85;1815030;79;20972;-70
2021/03/18 08:48:17;;;;;;;32.43;15.03;;;;;;;4.25;100.00;98968.19;1814117;78;21363;-71
2021/03/18 08:50:48;;;;;;;33.63;15.70;;;;;;;4.23;100.00;98965.31;1812743;78;21053;-70
2021/03/18 08:53:33;;;;;;;29.07;13.93;;;;;;;4.23;100.00;98963.46;1813404;79;21017;-72
2021/03/18 08:56:01;;;;;;;25.47;10.97;;;;;;;4.25;100.00;98967.33;1744686;81;21076;-72
2021/03/18 08:58:32;;;;;;;24.83;10.87;;;;;;;4.25;100.00;98971.34;1744631;82;21001;-71
2021/03/18 09:01:00;;;;;;;25.67;10.07;;;;;;;4.23;100.00;98971.49;1715101;80;21276;-70
2021/03/18 09:03:28;;;;;;;25.17;9.20;;;;;;;4.19;100.00;98974.15;1777443;80;21570;-71
2021/03/18 09:05:58;;;;;;;24.13;9.67;;;;;;;4.16;100.00;98974.45;1777636;80;21622;-71
2021/03/18 09:08:30;;;;;;;25.90;13.93;;;;;;;4.14;100.00;98971.09;1777509;80;21029;-71
2021/03/18 09:10:59;;;;;;;29.45;13.18;;;;;;;4.11;100.00;98976.78;1777629;80;21036;-70
2021/03/18 09:13:28;;;;;;;34.03;18.53;;;;;;;4.09;100.00;98976.94;1777584;80;21941;-71
2021/03/18 09:15:58;;;;;;;29.03;16.73;;;;;;;4.08;100.00;98977.09;1777384;80;20962;-71
2021/03/18 09:18:31;;;;;;;24.13;11.83;;;;;;;4.10;100.00;98973.75;1777515;80;21009;-71
2021/03/18 09:21:10;;;;;;;31.30;13.00;;;;;;;4.17;100.00;98985.00;1851835;76;26354;-72
2021/03/18 09:23:44;;;;;;;20.13;9.27;;;;;;;4.21;100.00;98986.04;1782423;80;21048;-73
2021/03/18 09:26:14;;;;;;;;;;;;;;;4.26;100.00;98980.55;1858047;77;22670;-74
2021/03/18 09:28:48;;;;;;;22.63;10.13;;;;;;;4.34;100.00;98987.31;1855112;77;20114;-73
2021/03/18 09:31:22;;;;;;;38.63;14.57;;;;;;;4.47;100.00;98986.05;1782823;80;21003;-72
2021/03/18 09:33:52;;;;;;;69.97;23.70;;;;;;;4.58;100.00;98988.45;1852063;77;20981;-73
2021/03/18 09:36:30;;;;;;;67.43;22.87;;;;;;;4.62;100.00;98991.17;1784438;78;21518;-72
2021/03/18 09:39:14;;;;;;;94.37;30.37;;;;;;;4.62;100.00;98983.62;1821827;77;21507;-73
2021/03/18 09:41:48;;;;;;;49.63;16.60;;;;;;;4.67;100.00;98990.17;1821542;78;21010;-69
2021/03/18 09:44:22;;;;;;;34.90;12.93;;;;;;;4.77;100.00;98986.05;1827013;78;20980;-70
2021/03/18 09:47:00;;;;;;;29.77;12.20;;;;;;;4.88;100.00;98994.31;1828117;78;20985;-73
2021/03/18 09:49:42;;;;;;;33.07;11.40;;;;;;;4.85;100.00;98991.47;1850911;77;21052;-71
2021/03/18 09:52:21;;;;;;;22.23;10.07;;;;;;;4.82;100.00;98991.78;1854854;77;22248;-72
2021/03/18 09:54:49;;;;;;;25.97;11.07;;;;;;;4.84;100.00;98990.28;1854410;77;21048;-71
2021/03/18 09:57:17;;;;;;;22.03;9.37;;;;;;;4.83;100.00;98998.80;1854665;77;21431;-72
2021/03/18 09:59:53;;;;;;;23.83;9.57;;;;;;;4.79;100.00;98990.75;1854874;77;21024;-72
2021/03/18 10:02:29;;;;;;;21.43;8.20;;;;;;;4.74;100.00;98990.38;1855235;77;20977;-77
2021/03/18 10:04:58;;;;;;;21.70;8.67;;;;;;;4.68;100.00;98993.20;1855040;77;22353;-74
2021/03/18 10:07:28;;;;;;;27.67;10.10;;;;;;;4.69;100.00;99000.73;1854891;77;20985;-72
2021/03/18 10:09:57;;;;;;;22.70;8.37;;;;;;;4.72;100.00;98995.89;1854832;77;21016;-75
2021/03/18 10:12:28;;;;;;;21.70;8.50;;;;;;;4.79;100.00;98995.28;1854916;77;21052;-76
2021/03/18 10:15:00;;;;;;;35.77;13.67;;;;;;;4.87;100.00;98994.81;1855204;77;20933;-76
2021/03/18 10:17:40;;;;;;;23.73;8.67;;;;;;;4.94;100.00;98995.85;1822083;77;21263;-75
2021/03/18 10:20:19;;;;;;;24.90;9.37;;;;;;;5.05;100.00;99002.77;1852743;77;21032;-74
2021/03/18 10:23:04;;;;;;;23.90;9.43;;;;;;;5.08;100.00;98998.91;1813455;79;21072;-72
2021/03/18 10:25:41;;;;;;;32.00;12.23;;;;;;;5.16;100.00;98995.44;1890728;76;26389;-73
2021/03/18 10:28:12;;;;;;;27.93;11.17;;;;;;;5.21;100.00;99003.33;1863934;77;20907;-72
2021/03/18 10:30:43;;;;;;;27.43;9.93;;;;;;;5.27;100.00;99002.66;1864869;77;21456;-74
2021/03/18 10:33:18;;;;;;;27.93;10.27;;;;;;;5.32;100.00;98997.66;1861121;77;21073;-75
2021/03/18 10:35:58;;;;;;;24.50;9.40;;;;;;;5.28;100.00;99007.03;1859238;77;20981;-75
2021/03/18 10:38:39;;;;;;;20.73;8.67;;;;;;;5.20;100.00;99007.51;1819241;78;21007;-74
2021/03/18 10:41:13;;;;;;;24.20;7.87;;;;;;;5.15;100.00;99006.64;1789625;80;21594;-74
2021/03/18 10:43:53;;;;;;;;;;;;;;;5.18;100.00;99010.34;1815172;78;21186;-73
2021/03/18 10:46:33;;;;;;;18.77;8.70;;;;;;;5.19;100.00;99011.17;1698010;83;20300;-75
2021/03/18 10:49:05;;;;;;;26.80;9.93;;;;;;;5.11;100.00;99006.12;1727938;82;21159;-76
2021/03/18 10:52:27;;;;;;;24.50;9.83;;;;;;;5.05;100.00;99005.44;1812234;77;26728;-75
2021/03/18 10:54:56;;;;;;;19.23;8.23;;;;;;;5.02;100.00;99010.28;1791594;78;21029;-75
2021/03/18 10:57:27;;;;;;;18.13;8.93;;;;;;;5.04;100.00;99009.11;1810639;78;21153;-75
2021/03/18 11:00:02;;;;;;;21.10;9.13;;;;;;;5.07;100.00;99008.80;1799221;79;21088;-77
2021/03/18 11:02:30;;;;;;;20.03;10.00;;;;;;;5.05;100.00;99008.63;1772157;80;21005;-78
2021/03/18 11:05:02;;;;;;;22.60;9.07;;;;;;;5.06;100.00;99013.80;1732817;80;21402;-78
2021/03/18 11:07:30;;;;;;;20.07;8.60;;;;;;;5.14;100.00;99014.36;1741014;80;21044;-76
2021/03/18 11:10:14;;;;;;;23.63;10.00;;;;;;;5.20;100.00;99013.70;1770023;80;22258;-76
2021/03/18 11:12:44;;;;;;;24.30;10.47;;;;;;;5.23;100.00;99019.25;1768061;80;21073;-76
2021/03/18 11:15:12;;;;;;;21.77;8.63;;;;;;;5.24;100.00;99022.25;1773230;80;21053;-75
2021/03/18 11:17:42;;;;;;;24.93;9.53;;;;;;;5.27;100.00;99029.47;1770425;80;21064;-76
2021/03/18 11:20:15;;;;;;;22.97;9.13;;;;;;;5.28;100.00;99030.33;1723542;83;21053;-75
2021/03/18 11:22:43;;;;;;;22.77;9.27;;;;;;;5.23;100.00;99029.97;1723591;81;21475;-76
2021/03/18 11:25:12;;;;;;;23.30;9.43;;;;;;;5.19;100.00;99034.81;1766328;80;21094;-75
2021/03/18 11:27:48;;;;;;;30.47;14.17;;;;;;;5.13;100.00;99034.11;1787832;80;21040;-75
2021/03/18 11:30:35;;;;;;;33.97;13.27;;;;;;;5.10;100.00;99032.60;1889950;76;26649;-76
2021/03/18 11:33:20;;;;;;;30.70;15.70;;;;;;;5.04;100.00;99029.20;1858748;76;21013;-75
2021/03/18 11:35:51;;;;;;;35.58;15.88;;;;;;;5.05;100.00;99026.05;1869821;76;21323;-74
2021/03/18 11:38:19;;;;;;;28.63;12.60;;;;;;;5.05;100.00;99029.55;1783140;79;21092;-74
2021/03/18 11:40:47;;;;;;;28.47;12.23;;;;;;;5.08;100.00;99025.70;1811416;78;21005;-74
2021/03/18 11:43:15;;;;;;;31.97;12.33;;;;;;;5.10;100.00;99022.39;1807263;78;20938;-72
2021/03/18 11:45:43;;;;;;;36.67;13.17;;;;;;;5.13;100.00;99022.05;1783457;79;20976;-73
2021/03/18 11:48:15;;;;;;;23.27;10.23;;;;;;;5.11;100.00;99020.86;1789442;79;21608;-75